Time;durP1;ratioP1;P1;durP2;ratioP2;P2;SDS_P1;SDS_P2;PMS_P1;PMS_P2;Temp;Humidity;BMP_temperature;BMP_pressure;BME280_temperature;BME280_humidity;BME280_pressure;Samples;Min_cycle;Max_cycle;Signal;HPM_P1;HPM_P2
2022/04/06 00:00:22;;;;;;;;;4.00;4.00;;;;;13.79;54.45;100541.09;2084637;28;47719;-52
2022/04/06 00:01:23;;;;;;;;;2.75;2.00;;;;;13.78;54.50;100536.69;2082489;28;47643;-52
2022/04/06 00:02:23;;;;;;;;;3.50;3.25;;;;;13.77;54.12;100537.59;2095221;28;47869;-52
2022/04/06 00:03:23;;;;;;;;;4.00;4.00;;;;;13.76;54.25;100536.75;2095357;28;47600;-53
2022/04/06 00:04:24;;;;;;;;;6.33;2.67;;;;;13.75;54.26;100537.66;2104521;28;47135;-50
2022/04/06 00:05:24;;;;;;;;;4.00;4.00;;;;;13.75;54.10;100544.81;2104436;28;47861;-49
2022/04/06 00:06:25;;;;;;;;;5.25;3.50;;;;;13.73;54.13;100539.53;2102238;28;47889;-49
2022/04/06 00:07:26;;;;;;;;;4.50;4.50;;;;;13.73;54.01;100541.31;2083402;28;47865;-50
2022/04/06 00:08:27;;;;;;;;;6.00;3.25;;;;;13.71;53.90;100536.03;2085155;28;47203;-49
2022/04/06 00:09:27;;;;;;;;;4.75;4.75;;;;;13.70;54.02;100538.75;2101933;27;47868;-49
2022/04/06 00:10:31;;;;;;;;;3.25;3.25;;;;;13.69;53.92;100529.00;2103805;27;47428;-50
2022/04/06 00:11:31;;;;;;;;;6.00;2.40;;;;;13.68;54.15;100536.13;2103993;28;47791;-52
2022/04/06 00:12:32;;;;;;;;;3.75;2.00;;;;;13.69;53.91;100531.69;2100119;28;47886;-49
2022/04/06 00:13:32;;;;;;;;;2.00;2.00;;;;;13.68;54.08;100538.81;2106388;27;47936;-52
2022/04/06 00:14:35;;;;;;;;;3.00;3.00;;;;;13.68;53.89;100543.28;2101885;28;46478;-52
2022/04/06 00:15:35;;;;;;;;;2.75;2.75;;;;;13.68;53.68;100540.59;2102849;28;47477;-53
2022/04/06 00:16:35;;;;;;;;;3.00;3.00;;;;;13.66;53.83;100535.34;2104403;28;47614;-50
2022/04/06 00:17:37;;;;;;;;;5.33;4.00;;;;;13.64;53.59;100533.66;2094688;28;47113;-50
2022/04/06 00:18:38;;;;;;;;;3.75;3.75;;;;;13.65;53.45;100535.41;2094954;28;47995;-51
2022/04/06 00:19:38;;;;;;;;;4.00;2.00;;;;;13.62;53.78;100532.84;2103412;28;47853;-51
2022/04/06 00:20:39;;;;;;;;;2.67;2.67;;;;;13.61;53.34;100531.13;2104499;28;48159;-51
2022/04/06 00:21:39;;;;;;;;;5.00;4.33;;;;;13.60;53.38;100532.03;2098409;27;48021;-49
2022/04/06 00:22:40;;;;;;;;;3.00;3.00;;;;;13.59;53.45;100530.28;2097467;27;48053;-48
2022/04/06 00:23:40;;;;;;;;;1.00;1.00;;;;;13.59;53.37;100532.94;2097054;28;47193;-51
2022/04/06 00:24:40;;;;;;;;;5.67;2.67;;;;;13.58;53.40;100529.41;2103670;28;47465;-49
2022/04/06 00:25:41;;;;;;;;;2.00;2.00;;;;;13.57;52.91;100530.34;2103852;28;47490;-50
2022/04/06 00:26:41;;;;;;;;;3.25;3.25;;;;;13.56;53.14;100528.59;2104221;28;47696;-50
2022/04/06 00:27:42;;;;;;;;;1.75;1.75;;;;;13.55;52.85;100529.53;2102328;28;47832;-52
2022/04/06 00:28:42;;;;;;;;;2.33;2.33;;;;;13.53;52.80;100523.38;2099641;28;48056;-51
2022/04/06 00:29:42;;;;;;;;;4.67;2.00;;;;;13.51;52.93;100525.25;2104482;28;47441;-51
2022/04/06 00:30:43;;;;;;;;;2.75;1.00;;;;;13.51;53.05;100527.91;2104228;28;47677;-52
2022/04/06 00:31:43;;;;;;;;;2.00;2.00;;;;;13.50;52.99;100524.38;2085004;28;45739;-52
2022/04/06 00:32:44;;;;;;;;;2.75;2.75;;;;;13.49;52.83;100527.09;2081531;28;46690;-51
2022/04/06 00:33:45;;;;;;;;;3.00;3.00;;;;;13.48;53.05;100520.03;2104124;27;45718;-52
2022/04/06 00:36:04;;;;;;;;;1.80;1.80;;;;;13.45;52.95;100521.00;2106758;27;47545;-51
2022/04/06 00:37:04;;;;;;;;;1.67;1.67;;;;;13.45;52.99;100515.66;2099467;27;47360;-49
2022/04/06 00:38:08;;;;;;;;;4.50;2.50;;;;;13.46;53.07;100513.84;2100234;28;47431;-51
2022/04/06 00:39:08;;;;;;;;;1.00;1.00;;;;;13.45;53.00;100521.00;2104247;27;47567;-50
2022/04/06 00:40:09;;;;;;;;;1.00;1.00;;;;;13.45;52.93;100521.00;2103574;27;47899;-51
2022/04/06 00:41:09;;;;;;;;;2.00;2.00;;;;;13.45;52.84;100514.78;2103127;28;47383;-51
2022/04/06 00:42:10;;;;;;;;;3.33;1.00;;;;;13.46;52.93;100513.84;2104225;28;46235;-51
2022/04/06 00:43:13;;;;;;;;;1.67;1.67;;;;;13.45;53.16;100509.47;2090264;28;47385;-50
2022/04/06 00:44:16;;;;;;;;;3.00;3.00;;;;;13.44;52.91;100508.59;2095451;28;47269;-49
2022/04/06 00:45:17;;;;;;;;;2.00;2.00;;;;;13.43;52.94;100503.31;2102935;28;47676;-54
2022/04/06 00:46:18;;;;;;;;;2.67;2.00;;;;;13.42;52.69;100498.91;2097295;28;47672;-51
2022/04/06 00:47:18;;;;;;;;;2.00;2.00;;;;;13.41;52.83;100500.72;2103824;28;47737;-50
2022/04/06 00:48:19;;;;;;;;;2.00;2.00;;;;;13.41;52.74;100503.38;2103722;28;47294;-50
2022/04/06 00:49:19;;;;;;;;;1.67;1.00;;;;;13.40;52.83;100496.31;2104201;28;47550;-52
2022/04/06 00:50:23;;;;;;;;;2.33;2.33;;;;;13.40;52.94;100490.09;2103838;28;47391;-52
2022/04/06 00:51:24;;;;;;;;;1.25;1.25;;;;;13.40;52.70;100495.44;2103764;28;46308;-48
2022/04/06 00:52:24;;;;;;;;;1.00;1.00;;;;;13.39;52.78;100491.03;2077618;28;48191;-51
2022/04/06 00:53:25;;;;;;;;;1.00;1.00;;;;;13.38;52.79;100490.16;2077356;28;48095;-51
2022/04/06 00:54:27;;;;;;;;;3.00;3.00;;;;;13.39;52.73;100485.72;2104022;28;48250;-49
2022/04/06 00:55:34;;;;;;;;;2.00;2.00;;;;;13.38;52.76;100489.31;2103742;28;47857;-50
2022/04/06 00:56:35;;;;;;;;;2.25;2.25;;;;;13.37;52.80;100484.91;2085741;28;47583;-50
2022/04/06 00:57:35;;;;;;;;;1.25;1.25;;;;;13.36;52.90;100493.81;2078071;28;47403;-51
2022/04/06 00:58:36;;;;;;;;;3.00;1.33;;;;;13.36;52.77;100492.03;2102904;28;47830;-49
2022/04/06 00:59:37;;;;;;;;;3.33;2.00;;;;;13.35;53.05;100484.09;2103381;28;47270;-48
2022/04/06 01:00:37;;;;;;;;;1.33;1.33;;;;;13.34;53.02;100485.88;2101847;28;47748;-51
2022/04/06 01:01:38;;;;;;;;;2.67;2.00;;;;;13.33;52.92;100491.25;2102859;27;47545;-50
2022/04/06 01:02:38;;;;;;;;;2.00;2.00;;;;;13.32;53.05;100493.03;2104272;28;47292;-50
2022/04/06 01:03:40;;;;;;;;;2.00;1.00;;;;;13.31;53.04;100487.78;2093989;28;47431;-49
2022/04/06 01:04:41;;;;;;;;;2.00;2.00;;;;;13.30;53.11;100486.91;2095116;28;47578;-52
2022/04/06 01:05:43;;;;;;;;;0.67;0.67;;;;;13.28;53.17;100488.75;2104131;28;47658;-53
2022/04/06 01:06:51;;;;;;;;;1.00;0.75;;;;;13.27;53.20;100487.03;2103052;28;47574;-48
2022/04/06 01:07:54;;;;;;;;;3.00;3.00;;;;;13.25;53.35;100484.41;2103791;28;48168;-49
2022/04/06 01:08:55;;;;;;;;;2.75;2.75;;;;;13.25;53.19;100484.41;2103943;28;46586;-49
2022/04/06 01:09:55;;;;;;;;;4.50;3.00;;;;;13.23;53.28;100488.94;2103785;28;47655;-49
2022/04/06 01:10:57;;;;;;;;;4.00;3.00;;;;;13.22;53.22;100476.53;2102301;28;47864;-50
2022/04/06 01:11:57;;;;;;;;;1.00;1.00;;;;;13.20;53.29;100478.38;2101868;28;47739;-51
2022/04/06 01:12:58;;;;;;;;;2.00;1.00;;;;;13.18;53.27;100474.91;2100519;27;47391;-54
2022/04/06 01:13:59;;;;;;;;;2.25;2.25;;;;;13.18;53.38;100482.00;2112356;27;47526;-51
2022/04/06 01:14:59;;;;;;;;;2.33;2.00;;;;;13.18;53.42;100476.66;2100843;28;47607;-49
2022/04/06 01:16:00;;;;;;;;;1.00;1.00;;;;;13.16;53.58;100474.06;2103356;28;46024;-50
2022/04/06 01:17:03;;;;;;;;;4.33;2.00;;;;;13.17;53.64;100473.13;2098490;28;47888;-54
2022/04/06 01:18:03;;;;;;;;;4.20;2.40;;;;;13.16;53.55;100471.38;2102518;28;47624;-49
2022/04/06 01:19:04;;;;;;;;;1.33;1.33;;;;;13.17;53.52;100473.13;2102162;28;47376;-50
2022/04/06 01:20:07;;;;;;;;;4.00;4.00;;;;;13.15;53.57;100471.44;2103941;28;47726;-52
2022/04/06 01:21:11;;;;;;;;;2.75;2.25;;;;;13.15;53.51;100471.44;2103814;27;47988;-54
2022/04/06 01:22:14;;;;;;;;;1.75;1.75;;;;;13.14;53.64;100464.38;2103881;28;47662;-50
2022/04/06 01:23:14;;;;;;;;;1.25;1.00;;;;;13.12;53.62;100467.09;2096429;28;46556;-50
2022/04/06 01:24:15;;;;;;;;;2.00;2.00;;;;;13.11;53.62;100470.69;2100549;28;48144;-51
2022/04/06 01:25:15;;;;;;;;;4.00;3.00;;;;;13.11;53.66;100465.38;2094908;28;47271;-50
2022/04/06 01:26:15;;;;;;;;;3.00;2.00;;;;;13.10;53.77;100466.28;2086640;28;47219;-52
2022/04/06 01:27:16;;;;;;;;;0.67;0.67;;;;;13.11;53.66;100467.16;2099273;28;47762;-50
2022/04/06 01:28:16;;;;;;;;;1.00;1.00;;;;;13.11;53.69;100465.38;2095611;28;46696;-51
2022/04/06 01:29:17;;;;;;;;;2.33;2.00;;;;;13.11;53.82;100461.84;2101974;28;47479;-50
2022/04/06 01:30:17;;;;;;;;;1.33;1.33;;;;;13.11;53.80;100469.81;2085869;28;45714;-52
2022/04/06 01:31:18;;;;;;;;;1.67;1.67;;;;;13.11;53.88;100467.16;2085947;28;47458;-51
2022/04/06 01:32:24;;;;;;;;;1.00;1.00;;;;;13.10;53.86;100462.75;2099752;28;47538;-49
2022/04/06 01:33:25;;;;;;;;;1.40;1.40;;;;;13.08;53.68;100467.25;2103527;28;47735;-48
2022/04/06 01:34:25;;;;;;;;;1.67;1.33;;;;;13.07;53.59;100454.84;2085578;28;46536;-51
2022/04/06 01:35:26;;;;;;;;;1.33;1.33;;;;;13.06;53.69;100467.31;2086026;28;47691;-50
2022/04/06 01:36:26;;;;;;;;;2.00;2.00;;;;;13.05;53.83;100470.91;2106543;27;47795;-53
2022/04/06 01:37:28;;;;;;;;;3.00;2.00;;;;;13.04;53.95;100465.63;2103667;27;47956;-53
2022/04/06 01:38:28;;;;;;;;;2.00;2.00;;;;;13.03;53.82;100463.91;2103705;28;47470;-52
2022/04/06 01:39:29;;;;;;;;;2.00;2.00;;;;;13.02;53.92;100464.81;2107216;27;47511;-52
2022/04/06 01:40:30;;;;;;;;;2.00;2.00;;;;;13.02;53.99;100462.16;2112153;27;46802;-52
2022/04/06 01:41:34;;;;;;;;;1.00;1.00;;;;;13.01;53.91;100468.41;2111343;27;47553;-52
2022/04/06 01:42:34;;;;;;;;;2.00;2.00;;;;;13.02;53.88;100459.50;2097658;28;48054;-53
2022/04/06 01:43:35;;;;;;;;;1.33;1.00;;;;;13.01;53.85;100471.06;2085828;28;47754;-51
2022/04/06 01:44:36;;;;;;;;;1.00;1.00;;;;;13.01;53.98;100457.75;2100211;28;47140;-50
2022/04/06 01:45:37;;;;;;;;;1.00;1.00;;;;;13.00;53.78;100466.69;2110995;27;46075;-49
2022/04/06 01:46:37;;;;;;;;;2.25;2.00;;;;;13.00;54.01;100458.69;2102151;28;47514;-50
2022/04/06 01:47:38;;;;;;;;;1.33;1.33;;;;;12.98;54.14;100461.41;2105577;27;47831;-51
2022/04/06 01:52:12;;;;;;;;;0.00;0.00;;;;;12.99;53.87;100462.28;2095382;28;47211;-48
2022/04/06 01:52:37;;;;;;;;;2.80;2.00;;;;;12.93;53.80;100452.69;2105218;27;47692;-52
2022/04/06 01:53:37;;;;;;;;;2.00;2.00;;;;;12.93;53.88;100455.34;2096492;27;46379;-49
2022/04/06 01:54:39;;;;;;;;;2.00;1.50;;;;;12.92;53.94;100456.28;2112043;27;47419;-54
2022/04/06 01:55:40;;;;;;;;;1.60;1.00;;;;;12.92;54.21;100453.63;2092401;28;47538;-51
2022/04/06 01:56:40;;;;;;;;;1.67;0.67;;;;;12.91;53.98;100457.19;2094479;27;47646;-51
2022/04/06 01:57:42;;;;;;;;;3.00;2.00;;;;;12.90;53.85;100450.13;2098742;27;47941;-50
2022/04/06 01:58:42;;;;;;;;;2.75;2.00;;;;;12.88;53.96;100444.88;2096662;27;47653;-51
2022/04/06 01:59:43;;;;;;;;;2.00;2.00;;;;;12.87;53.99;100444.94;2102206;28;48200;-51
2022/04/06 02:00:44;;;;;;;;;3.20;1.80;;;;;12.86;53.84;100440.53;2103434;27;47741;-50
2022/04/06 02:01:49;;;;;;;;;2.67;1.67;;;;;12.86;53.89;100448.53;2104402;27;47445;-51
2022/04/06 02:02:51;;;;;;;;;1.00;1.00;;;;;12.85;53.95;100445.00;2105002;27;47808;-47
2022/04/06 02:03:52;;;;;;;;;1.00;1.00;;;;;12.85;53.99;100446.78;2103432;28;47761;-48
2022/04/06 02:04:53;;;;;;;;;1.00;1.00;;;;;12.85;53.93;100446.78;2098641;27;48113;-53
2022/04/06 02:05:53;;;;;;;;;2.00;2.00;;;;;12.83;53.97;100444.19;2112121;27;47472;-51
2022/04/06 02:06:53;;;;;;;;;0.00;0.00;;;;;12.83;54.10;100443.28;2105652;27;47827;-49
2022/04/06 02:07:54;;;;;;;;;2.67;2.00;;;;;12.82;53.90;100441.53;2112209;27;47892;-52
2022/04/06 02:08:56;;;;;;;;;1.00;1.00;;;;;12.81;53.99;100440.69;2097585;27;47820;-50
2022/04/06 02:09:59;;;;;;;;;3.00;1.75;;;;;12.81;54.05;100442.47;2099704;27;47818;-50
2022/04/06 02:11:00;;;;;;;;;2.00;2.00;;;;;12.80;53.95;100446.06;2096660;27;47908;-51
2022/04/06 02:12:00;;;;;;;;;1.00;1.00;;;;;12.79;54.14;100446.97;2104735;27;47945;-51
2022/04/06 02:13:02;;;;;;;;;1.00;1.00;;;;;12.78;54.07;100443.44;2103698;27;47712;-52
2022/04/06 02:14:05;;;;;;;;;1.75;1.75;;;;;12.79;54.01;100444.31;2098184;28;45929;-48
2022/04/06 02:15:12;;;;;;;;;4.75;1.75;;;;;12.78;53.88;100446.13;2092202;27;48362;-51
2022/04/06 02:16:12;;;;;;;;;2.75;2.75;;;;;12.75;53.97;100440.91;2099083;27;48142;-51
2022/04/06 02:17:13;;;;;;;;;1.00;1.00;;;;;12.74;53.94;100441.84;2104657;27;47757;-49
2022/04/06 02:18:13;;;;;;;;;1.67;1.00;;;;;12.72;54.01;100438.34;2105503;27;47841;-52
2022/04/06 02:19:14;;;;;;;;;1.33;1.33;;;;;12.72;53.92;100445.47;2103260;27;47309;-51
2022/04/06 02:20:14;;;;;;;;;0.33;0.33;;;;;12.69;54.02;100438.44;2106150;27;47860;-50
2022/04/06 02:21:15;;;;;;;;;1.00;1.00;;;;;12.67;54.08;100438.50;2097466;27;47360;-49
2022/04/06 02:22:18;;;;;;;;;0.33;0.33;;;;;12.67;54.15;100443.81;2109644;27;47621;-50
2022/04/06 02:23:18;;;;;;;;;1.00;0.25;;;;;12.67;54.12;100443.81;2084751;28;47866;-50
2022/04/06 02:24:18;;;;;;;;;1.33;1.33;;;;;12.67;54.17;100442.94;2083594;28;47405;-49
2022/04/06 02:25:19;;;;;;;;;2.00;2.00;;;;;12.66;54.19;100434.09;2107955;27;47535;-49
2022/04/06 02:26:19;;;;;;;;;1.00;1.00;;;;;12.67;54.08;100432.31;2104863;27;47216;-51
2022/04/06 02:27:20;;;;;;;;;1.00;1.00;;;;;12.66;54.04;100427.91;2108068;27;47413;-50
2022/04/06 02:28:20;;;;;;;;;2.33;1.00;;;;;12.65;54.15;100437.69;2084306;28;47437;-52
2022/04/06 02:29:20;;;;;;;;;1.67;1.67;;;;;12.64;54.12;100437.75;2085712;28;47850;-49
2022/04/06 02:30:22;;;;;;;;;1.00;1.00;;;;;12.63;53.99;100426.22;2099650;27;47791;-50
2022/04/06 02:31:23;;;;;;;;;1.00;1.00;;;;;12.65;54.35;100431.50;2102184;27;47857;-49
2022/04/06 02:32:23;;;;;;;;;1.00;1.00;;;;;12.63;53.76;100428.03;2108648;27;47665;-49
2022/04/06 02:33:24;;;;;;;;;1.00;1.00;;;;;12.63;53.83;100420.03;2109228;27;47688;-52
2022/04/06 02:34:24;;;;;;;;;1.33;1.33;;;;;12.62;53.97;100427.16;2109438;27;47838;-50
2022/04/06 02:35:25;;;;;;;;;2.33;0.00;;;;;12.60;54.08;100423.69;2096771;28;47304;-51
2022/04/06 02:36:25;;;;;;;;;1.00;1.00;;;;;12.59;54.07;100421.94;2107691;27;47443;-49
2022/04/06 02:37:26;;;;;;;;;0.00;0.00;;;;;12.60;53.98;100425.47;2103731;27;47924;-48
2022/04/06 02:38:26;;;;;;;;;2.00;0.67;;;;;12.59;54.22;100423.72;2099765;27;47285;-50
2022/04/06 02:39:27;;;;;;;;;2.00;0.33;;;;;12.59;54.06;100413.94;2103874;27;47736;-53
2022/04/06 02:40:27;;;;;;;;;1.00;1.00;;;;;12.57;53.97;100418.44;2105866;27;47796;-50
2022/04/06 02:41:28;;;;;;;;;1.00;1.00;;;;;12.58;54.04;100414.88;2110287;27;48017;-51
2022/04/06 02:42:29;;;;;;;;;1.00;1.00;;;;;12.58;53.98;100424.66;2104165;27;47856;-49
2022/04/06 02:43:29;;;;;;;;;0.67;0.67;;;;;12.57;54.07;100415.78;2113525;27;47563;-51
2022/04/06 02:44:30;;;;;;;;;1.00;1.00;;;;;12.58;54.00;100422.00;2109773;27;48007;-50
2022/04/06 02:45:30;;;;;;;;;0.50;0.50;;;;;12.58;53.90;100422.00;2110909;27;47904;-53
2022/04/06 02:46:31;;;;;;;;;1.00;1.00;;;;;12.58;53.95;100412.22;2111874;27;47631;-51
2022/04/06 02:47:32;;;;;;;;;0.00;0.00;;;;;12.59;53.99;100413.09;2105525;27;47504;-50
2022/04/06 02:48:32;;;;;;;;;0.00;0.00;;;;;12.60;53.80;100415.69;2112977;27;47895;-50
2022/04/06 02:49:33;;;;;;;;;1.00;1.00;;;;;12.61;54.04;100416.56;2110146;27;47867;-50
2022/04/06 02:50:33;;;;;;;;;0.67;0.67;;;;;12.62;53.83;100415.63;2108148;27;47782;-52
2022/04/06 02:51:34;;;;;;;;;1.00;1.00;;;;;12.64;53.91;100419.09;2113430;27;47487;-49
2022/04/06 02:52:35;;;;;;;;;1.00;1.00;;;;;12.64;54.01;100416.44;2104168;27;47587;-49
2022/04/06 02:53:35;;;;;;;;;0.00;0.00;;;;;12.64;53.73;100411.13;2098785;28;47800;-51
2022/04/06 02:54:36;;;;;;;;;0.00;0.00;;;;;12.64;53.87;100413.78;2112305;27;47483;-50
2022/04/06 02:55:36;;;;;;;;;0.00;0.00;;;;;12.65;53.74;100415.53;2109835;27;47864;-50
2022/04/06 02:56:38;;;;;;;;;0.67;0.00;;;;;12.63;53.87;100410.25;2112768;27;48155;-52
2022/04/06 02:57:39;;;;;;;;;1.75;0.50;;;;;12.64;53.89;100411.13;2101262;27;47709;-50
2022/04/06 02:58:39;;;;;;;;;0.75;0.75;;;;;12.63;53.78;100407.59;2105728;27;47723;-53
2022/04/06 02:59:40;;;;;;;;;0.67;0.00;;;;;12.64;53.81;100408.47;2106634;27;47443;-49
2022/04/06 03:00:41;;;;;;;;;0.67;0.00;;;;;12.65;53.92;100411.06;2106438;27;47410;-53
2022/04/06 03:01:41;;;;;;;;;1.00;0.00;;;;;12.66;53.85;100409.28;2110973;27;47771;-49
2022/04/06 03:02:43;;;;;;;;;0.00;0.00;;;;;12.67;53.72;100408.34;2099701;28;47830;-50
2022/04/06 03:03:43;;;;;;;;;1.60;1.60;;;;;12.67;53.82;100411.00;2105498;27;47588;-50
2022/04/06 03:04:43;;;;;;;;;0.67;0.00;;;;;12.66;53.66;100404.81;2103146;27;47972;-53
2022/04/06 03:05:44;;;;;;;;;1.00;1.00;;;;;12.66;53.78;100407.47;2110993;27;47547;-47
2022/04/06 03:06:44;;;;;;;;;0.00;0.00;;;;;12.67;53.69;100405.69;2100237;28;47245;-50
2022/04/06 03:07:45;;;;;;;;;0.33;0.33;;;;;12.65;53.74;100405.75;2096193;28;46742;-54
2022/04/06 03:08:45;;;;;;;;;0.67;0.67;;;;;12.65;53.74;100400.41;2102646;27;48149;-51
2022/04/06 03:09:45;;;;;;;;;0.00;0.00;;;;;12.65;53.67;100402.22;2105014;28;47665;-53
2022/04/06 03:10:46;;;;;;;;;0.00;0.00;;;;;12.64;53.81;100397.81;2112591;27;47447;-51
2022/04/06 03:11:46;;;;;;;;;0.33;0.33;;;;;12.67;53.87;100397.69;2102613;27;47701;-52
2022/04/06 03:12:47;;;;;;;;;0.00;0.00;;;;;12.67;53.87;100403.88;2102130;28;47468;-52
2022/04/06 03:13:49;;;;;;;;;2.00;1.00;;;;;12.68;53.78;100402.09;2107372;27;47444;-49
2022/04/06 03:14:50;;;;;;;;;1.25;1.25;;;;;12.68;53.75;100404.75;2103403;28;47577;-49
2022/04/06 03:15:50;;;;;;;;;0.00;0.00;;;;;12.68;53.80;100402.97;2086522;28;47403;-52
2022/04/06 03:16:51;;;;;;;;;0.00;0.00;;;;;12.68;53.81;100396.78;2084983;28;47567;-50
2022/04/06 03:17:51;;;;;;;;;0.00;0.00;;;;;12.70;53.70;100396.72;2094821;28;47928;-51
2022/04/06 03:18:52;;;;;;;;;1.00;1.00;;;;;12.69;53.72;100398.50;2094937;28;47627;-49
2022/04/06 03:19:53;;;;;;;;;0.00;0.00;;;;;12.71;54.06;100390.50;2104683;28;47642;-51
2022/04/06 03:20:53;;;;;;;;;0.33;0.33;;;;;12.72;53.50;100394.88;2095430;28;47125;-52
2022/04/06 03:21:53;;;;;;;;;0.00;0.00;;;;;12.72;53.78;100395.75;2095822;28;47917;-49
2022/04/06 03:22:54;;;;;;;;;0.00;0.00;;;;;12.73;53.77;100394.84;2098215;28;47760;-53
2022/04/06 03:23:54;;;;;;;;;0.67;0.00;;;;;12.74;53.64;100398.34;2096430;28;47962;-50
2022/04/06 03:24:55;;;;;;;;;0.00;0.00;;;;;12.74;53.79;100391.25;2096605;28;47345;-50
2022/04/06 03:25:55;;;;;;;;;0.00;0.00;;;;;12.74;53.62;100391.25;2098522;28;46978;-50
2022/04/06 03:26:55;;;;;;;;;0.00;0.00;;;;;12.76;53.73;100388.53;2100843;28;47860;-49
2022/04/06 03:27:56;;;;;;;;;0.00;0.00;;;;;12.75;53.81;100390.31;2102105;28;47366;-48
2022/04/06 03:28:57;;;;;;;;;1.00;0.00;;;;;12.76;53.48;100384.06;2104868;28;48171;-52
2022/04/06 03:29:58;;;;;;;;;0.00;0.00;;;;;12.76;53.53;100384.06;2104652;28;47758;-49
2022/04/06 03:30:58;;;;;;;;;0.00;0.00;;;;;12.76;53.67;100383.19;2103972;27;47759;-47
2022/04/06 03:31:58;;;;;;;;;0.00;0.00;;;;;12.76;53.73;100380.53;2103143;28;47752;-51
2022/04/06 03:32:59;;;;;;;;;0.67;0.67;;;;;12.76;53.38;100377.88;2103870;28;47566;-50
2022/04/06 03:34:00;;;;;;;;;0.00;0.00;;;;;12.75;53.36;100374.34;2104501;28;47295;-52
2022/04/06 03:35:01;;;;;;;;;0.00;0.00;;;;;12.76;53.31;100369.88;2104596;28;48223;-52
2022/04/06 03:36:02;;;;;;;;;0.00;0.00;;;;;12.76;53.58;100372.53;2107020;27;48113;-50
2022/04/06 03:37:03;;;;;;;;;0.00;0.00;;;;;12.75;53.54;100365.47;2112475;27;46968;-50
2022/04/06 03:38:04;;;;;;;;;0.00;0.00;;;;;12.75;53.50;100377.00;2109749;27;47569;-51
2022/04/06 03:39:04;;;;;;;;;0.00;0.00;;;;;12.75;53.31;100366.34;2104929;28;47135;-49
2022/04/06 03:40:05;;;;;;;;;0.00;0.00;;;;;12.76;53.39;100373.41;2104497;27;47937;-51
2022/04/06 03:41:06;;;;;;;;;0.00;0.00;;;;;12.75;53.34;100363.69;2104295;28;47323;-50
2022/04/06 03:42:06;;;;;;;;;0.00;0.00;;;;;12.76;53.59;100368.09;2104631;28;48173;-50
2022/04/06 03:43:07;;;;;;;;;1.00;0.75;;;;;12.77;53.51;100369.81;2102590;28;47641;-50
2022/04/06 03:44:07;;;;;;;;;0.00;0.00;;;;;12.76;53.32;100368.09;2102696;28;47566;-50
2022/04/06 03:45:09;;;;;;;;;0.00;0.00;;;;;12.78;53.46;100368.91;2104471;28;47122;-52
2022/04/06 03:46:09;;;;;;;;;0.25;0.00;;;;;12.79;53.28;100361.78;2104225;28;47297;-54
2022/04/06 03:47:10;;;;;;;;;0.00;0.00;;;;;12.78;53.35;100363.56;2095575;28;47992;-49
2022/04/06 03:48:11;;;;;;;;;1.00;0.00;;;;;12.78;53.33;100360.03;2090122;28;47548;-50
2022/04/06 03:49:11;;;;;;;;;0.00;0.00;;;;;12.77;53.45;100359.16;2104337;28;47695;-49
2022/04/06 03:50:12;;;;;;;;;0.00;0.00;;;;;12.78;53.26;100370.69;2104353;28;47627;-49
2022/04/06 03:51:12;;;;;;;;;0.00;0.00;;;;;12.78;53.36;100368.91;2104263;28;47375;-51
2022/04/06 03:52:13;;;;;;;;;0.00;0.00;;;;;12.79;53.50;100367.09;2104510;28;47623;-50
2022/04/06 03:53:13;;;;;;;;;1.00;0.00;;;;;12.79;53.36;100359.97;2098535;28;47800;-51
2022/04/06 03:54:13;;;;;;;;;0.00;0.00;;;;;12.78;53.30;100355.59;2104350;28;47958;-50
2022/04/06 03:55:14;;;;;;;;;0.00;0.00;;;;;12.79;53.21;100361.78;2102452;28;48177;-50
2022/04/06 03:56:14;;;;;;;;;1.00;1.00;;;;;12.79;53.38;100359.97;2104222;28;47465;-49
2022/04/06 03:57:15;;;;;;;;;0.00;0.00;;;;;12.80;53.29;100358.19;2104349;28;47880;-50
2022/04/06 03:58:15;;;;;;;;;0.00;0.00;;;;;12.79;53.29;100356.44;2100750;28;48246;-53
2022/04/06 03:59:16;;;;;;;;;0.00;0.00;;;;;12.80;53.23;100358.19;2104682;28;47868;-50
2022/04/06 04:00:17;;;;;;;;;0.00;0.00;;;;;12.80;53.22;100359.06;2102562;28;47537;-50
2022/04/06 04:01:18;;;;;;;;;0.00;0.00;;;;;12.79;53.18;100353.78;2089885;28;47855;-52
2022/04/06 04:02:18;;;;;;;;;0.00;0.00;;;;;12.79;53.29;100357.31;2094467;28;48238;-49
2022/04/06 04:03:19;;;;;;;;;2.00;1.00;;;;;12.79;53.27;100351.13;2097264;28;46489;-49
2022/04/06 04:04:19;;;;;;;;;0.00;0.00;;;;;12.78;53.44;100352.91;2085962;28;47285;-49
2022/04/06 04:05:20;;;;;;;;;0.00;0.00;;;;;12.78;53.24;100355.59;2086742;28;47837;-48
2022/04/06 04:06:20;;;;;;;;;1.00;1.00;;;;;12.78;53.28;100357.38;2104048;28;47259;-49
2022/04/06 04:07:21;;;;;;;;;0.00;0.00;;;;;12.79;53.22;100352.00;2104577;28;47604;-49
2022/04/06 04:08:22;;;;;;;;;0.00;0.00;;;;;12.79;53.22;100351.13;2104410;28;48002;-51
2022/04/06 04:09:22;;;;;;;;;0.00;0.00;;;;;12.79;53.36;100353.78;2104470;28;47945;-51
2022/04/06 04:10:23;;;;;;;;;1.00;1.00;;;;;12.78;53.09;100349.38;2099826;28;47615;-51
2022/04/06 04:11:23;;;;;;;;;1.00;0.00;;;;;12.79;53.38;100352.00;2098637;28;47364;-51
2022/04/06 04:12:24;;;;;;;;;0.00;0.00;;;;;12.79;53.35;100348.47;2103959;27;47626;-48
2022/04/06 04:13:24;;;;;;;;;0.33;0.33;;;;;12.77;53.30;100355.63;2104426;27;47439;-49
2022/04/06 04:14:25;;;;;;;;;0.00;0.00;;;;;12.78;53.19;100349.38;2104578;28;47362;-48
2022/04/06 04:15:25;;;;;;;;;2.00;0.00;;;;;12.78;53.25;100350.25;2104163;28;47474;-51
2022/04/06 04:16:26;;;;;;;;;0.00;0.00;;;;;12.77;53.42;100343.19;2100188;28;47451;-54
2022/04/06 04:17:27;;;;;;;;;0.00;0.00;;;;;12.78;53.23;100346.72;2089163;28;47743;-50
2022/04/06 04:18:27;;;;;;;;;0.00;0.00;;;;;12.78;53.26;100352.91;2065757;28;47479;-50
2022/04/06 04:19:28;;;;;;;;;0.00;0.00;;;;;12.75;53.38;100350.38;2070126;28;48309;-51
2022/04/06 04:20:28;;;;;;;;;0.00;0.00;;;;;12.75;53.40;100347.72;2104040;28;47716;-52
2022/04/06 04:21:35;;;;;;;;;1.00;1.00;;;;;12.76;53.48;100346.78;2100041;28;48079;-51
2022/04/06 04:22:36;;;;;;;;;0.00;0.00;;;;;12.76;53.29;100345.91;2092306;28;47492;-53
2022/04/06 04:23:36;;;;;;;;;0.00;0.00;;;;;12.75;53.34;100346.84;2095897;28;47611;-53
2022/04/06 04:24:36;;;;;;;;;0.00;0.00;;;;;12.75;53.45;100347.72;2104318;28;47499;-49
2022/04/06 04:25:37;;;;;;;;;0.00;0.00;;;;;12.76;53.31;100352.09;2095327;28;47837;-54
2022/04/06 04:26:38;;;;;;;;;0.33;0.33;;;;;12.76;53.44;100352.09;2094990;28;47684;-51
2022/04/06 04:27:39;;;;;;;;;1.00;0.00;;;;;12.76;53.33;100356.56;2103280;28;48151;-49
2022/04/06 04:28:40;;;;;;;;;0.25;0.25;;;;;12.74;53.40;100353.97;2096050;28;47945;-49
2022/04/06 04:29:40;;;;;;;;;0.00;0.00;;;;;12.72;53.21;100345.16;2095979;28;47445;-53
2022/04/06 04:30:40;;;;;;;;;0.00;0.00;;;;;12.72;53.50;100357.63;2097550;28;47861;-52
2022/04/06 04:31:41;;;;;;;;;0.00;0.00;;;;;12.70;53.25;100344.31;2102671;28;46702;-51
2022/04/06 04:32:41;;;;;;;;;1.00;1.00;;;;;12.67;53.37;100345.31;2100459;28;47868;-50
2022/04/06 04:33:42;;;;;;;;;0.00;0.00;;;;;12.67;53.47;100349.78;2104174;28;48069;-52
2022/04/06 04:34:43;;;;;;;;;0.00;0.00;;;;;12.65;53.58;100344.50;2104332;28;47509;-50
2022/04/06 04:35:44;;;;;;;;;0.00;0.00;;;;;12.63;53.46;100346.38;2095974;28;47708;-51
2022/04/06 04:36:44;;;;;;;;;0.00;0.00;;;;;12.62;53.59;100347.28;2107571;27;47680;-50
2022/04/06 04:37:44;;;;;;;;;1.00;1.00;;;;;12.61;53.65;100342.88;2104204;28;48023;-50
2022/04/06 04:38:45;;;;;;;;;0.33;0.33;;;;;12.61;53.66;100328.72;2104138;28;47807;-49
2022/04/06 04:39:46;;;;;;;;;0.00;0.00;;;;;12.62;53.89;100343.75;2103266;28;47620;-49
2022/04/06 04:40:46;;;;;;;;;0.00;0.00;;;;;12.63;53.76;100340.16;2104347;28;47687;-48
2022/04/06 04:41:47;;;;;;;;;2.00;0.00;;;;;12.65;53.75;100338.31;2103804;28;47447;-53
2022/04/06 04:42:47;;;;;;;;;1.33;0.00;;;;;12.65;53.58;100336.53;2104295;28;47006;-51
2022/04/06 04:43:50;;;;;;;;;0.00;0.00;;;;;12.67;53.61;100344.44;2099639;28;47705;-52
2022/04/06 04:44:50;;;;;;;;;0.75;0.75;;;;;12.67;53.80;100342.66;2104328;28;47843;-51
2022/04/06 04:45:51;;;;;;;;;1.00;1.00;;;;;12.68;53.70;100335.53;2103840;28;47704;-47
2022/04/06 04:46:51;;;;;;;;;1.00;1.00;;;;;12.68;53.78;100335.53;2098469;28;47175;-50